sensor_id;sensor_type;location;lat;lon;timestamp;temperature;humidity
58153;DHT22;43967;51.634;5.566;2022-12-07T00:02:31;19.10;66.00
58153;DHT22;43967;51.634;5.566;2022-12-07T00:07:32;19.00;65.90
58153;DHT22;43967;51.634;5.566;2022-12-07T00:12:33;19.00;65.90
58153;DHT22;43967;51.634;5.566;2022-12-07T00:17:34;19.00;65.90
58153;DHT22;43967;51.634;5.566;2022-12-07T00:22:35;19.00;66.00
58153;DHT22;43967;51.634;5.566;2022-12-07T00:27:36;18.90;65.90
58153;DHT22;43967;51.634;5.566;2022-12-07T00:32:37;18.90;66.00
58153;DHT22;43967;51.634;5.566;2022-12-07T00:37:39;18.90;65.90
58153;DHT22;43967;51.634;5.566;2022-12-07T00:42:40;18.90;66.00
58153;DHT22;43967;51.634;5.566;2022-12-07T00:47:41;18.90;66.00
58153;DHT22;43967;51.634;5.566;2022-12-07T00:52:42;18.80;65.90
58153;DHT22;43967;51.634;5.566;2022-12-07T00:57:43;18.80;65.90
58153;DHT22;43967;51.634;5.566;2022-12-07T01:02:44;18.80;65.90
58153;DHT22;43967;51.634;5.566;2022-12-07T01:07:45;18.80;65.90
58153;DHT22;43967;51.634;5.566;2022-12-07T01:12:46;18.80;65.90
58153;DHT22;43967;51.634;5.566;2022-12-07T01:17:47;18.80;65.90
58153;DHT22;43967;51.634;5.566;2022-12-07T01:22:48;18.80;66.00
58153;DHT22;43967;51.634;5.566;2022-12-07T01:27:50;18.70;65.90
58153;DHT22;43967;51.634;5.566;2022-12-07T01:32:51;18.70;65.90
58153;DHT22;43967;51.634;5.566;2022-12-07T01:37:52;18.70;65.80
58153;DHT22;43967;51.634;5.566;2022-12-07T01:42:53;18.70;65.90
58153;DHT22;43967;51.634;5.566;2022-12-07T01:47:55;18.70;65.90
58153;DHT22;43967;51.634;5.566;2022-12-07T01:53:00;18.70;65.80
58153;DHT22;43967;51.634;5.566;2022-12-07T01:58:02;18.60;65.80
58153;DHT22;43967;51.634;5.566;2022-12-07T02:03:06;18.60;65.80
58153;DHT22;43967;51.634;5.566;2022-12-07T02:08:09;18.60;65.80
58153;DHT22;43967;51.634;5.566;2022-12-07T02:13:17;18.60;65.80
58153;DHT22;43967;51.634;5.566;2022-12-07T02:24:14;18.50;65.80
58153;DHT22;43967;51.634;5.566;2022-12-07T02:29:22;18.50;65.70
58153;DHT22;43967;51.634;5.566;2022-12-07T02:34:44;18.50;65.70
58153;DHT22;43967;51.634;5.566;2022-12-07T02:40:29;18.50;65.70
58153;DHT22;43967;51.634;5.566;2022-12-07T02:45:24;18.50;65.70
58153;DHT22;43967;51.634;5.566;2022-12-07T02:50:27;18.50;65.70
58153;DHT22;43967;51.634;5.566;2022-12-07T02:55:33;18.50;65.60
58153;DHT22;43967;51.634;5.566;2022-12-07T03:00:52;18.50;65.70
58153;DHT22;43967;51.634;5.566;2022-12-07T03:11:16;18.40;65.60
58153;DHT22;43967;51.634;5.566;2022-12-07T03:16:28;18.40;65.60
58153;DHT22;43967;51.634;5.566;2022-12-07T03:21:45;18.40;65.60
58153;DHT22;43967;51.634;5.566;2022-12-07T03:27:18;18.40;65.60
58153;DHT22;43967;51.634;5.566;2022-12-07T03:32:34;18.40;65.60
58153;DHT22;43967;51.634;5.566;2022-12-07T03:37:46;18.40;65.70
58153;DHT22;43967;51.634;5.566;2022-12-07T03:42:49;18.40;65.70
58153;DHT22;43967;51.634;5.566;2022-12-07T03:48:25;18.40;65.60
58153;DHT22;43967;51.634;5.566;2022-12-07T03:53:42;18.40;65.70
58153;DHT22;43967;51.634;5.566;2022-12-07T03:58:45;18.40;65.70
58153;DHT22;43967;51.634;5.566;2022-12-07T04:03:47;18.30;65.60
58153;DHT22;43967;51.634;5.566;2022-12-07T04:08:48;18.30;65.60
58153;DHT22;43967;51.634;5.566;2022-12-07T04:13:49;18.30;66.30
58153;DHT22;43967;51.634;5.566;2022-12-07T04:18:50;18.30;65.60
58153;DHT22;43967;51.634;5.566;2022-12-07T04:23:51;18.30;65.60
58153;DHT22;43967;51.634;5.566;2022-12-07T04:28:52;18.30;65.60
58153;DHT22;43967;51.634;5.566;2022-12-07T04:33:53;18.30;65.60
58153;DHT22;43967;51.634;5.566;2022-12-07T04:38:55;18.30;65.50
58153;DHT22;43967;51.634;5.566;2022-12-07T04:43:58;18.30;65.50
58153;DHT22;43967;51.634;5.566;2022-12-07T04:49:00;18.30;65.50
58153;DHT22;43967;51.634;5.566;2022-12-07T04:54:01;18.30;65.50
58153;DHT22;43967;51.634;5.566;2022-12-07T04:59:03;18.30;65.40
58153;DHT22;43967;51.634;5.566;2022-12-07T05:04:04;18.30;65.40
58153;DHT22;43967;51.634;5.566;2022-12-07T05:09:05;18.20;65.40
58153;DHT22;43967;51.634;5.566;2022-12-07T05:14:18;18.20;65.40
58153;DHT22;43967;51.634;5.566;2022-12-07T05:19:19;18.20;65.40
58153;DHT22;43967;51.634;5.566;2022-12-07T05:24:20;18.20;65.40
58153;DHT22;43967;51.634;5.566;2022-12-07T05:29:22;18.20;65.50
58153;DHT22;43967;51.634;5.566;2022-12-07T05:34:23;18.20;66.10
58153;DHT22;43967;51.634;5.566;2022-12-07T05:39:24;18.20;65.40
58153;DHT22;43967;51.634;5.566;2022-12-07T05:44:25;18.20;65.40
58153;DHT22;43967;51.634;5.566;2022-12-07T05:49:26;18.20;65.40
58153;DHT22;43967;51.634;5.566;2022-12-07T05:54:27;18.20;65.40
58153;DHT22;43967;51.634;5.566;2022-12-07T05:59:28;18.10;65.30
58153;DHT22;43967;51.634;5.566;2022-12-07T06:04:32;18.10;65.30
58153;DHT22;43967;51.634;5.566;2022-12-07T06:09:34;18.10;65.30
58153;DHT22;43967;51.634;5.566;2022-12-07T06:14:35;18.10;65.30
58153;DHT22;43967;51.634;5.566;2022-12-07T06:19:37;18.10;65.30
58153;DHT22;43967;51.634;5.566;2022-12-07T06:24:38;18.10;65.30
58153;DHT22;43967;51.634;5.566;2022-12-07T06:29:40;18.10;65.30
58153;DHT22;43967;51.634;5.566;2022-12-07T06:34:41;18.10;65.40
58153;DHT22;43967;51.634;5.566;2022-12-07T06:39:42;18.10;65.40
58153;DHT22;43967;51.634;5.566;2022-12-07T06:44:43;18.00;65.40
58153;DHT22;43967;51.634;5.566;2022-12-07T06:49:44;18.00;65.40
58153;DHT22;43967;51.634;5.566;2022-12-07T06:54:45;18.00;65.20
58153;DHT22;43967;51.634;5.566;2022-12-07T06:59:46;18.00;65.40
58153;DHT22;43967;51.634;5.566;2022-12-07T07:04:47;18.00;65.60
58153;DHT22;43967;51.634;5.566;2022-12-07T07:09:48;18.00;65.60
58153;DHT22;43967;51.634;5.566;2022-12-07T07:14:51;18.00;65.60
58153;DHT22;43967;51.634;5.566;2022-12-07T07:19:52;18.00;65.50
58153;DHT22;43967;51.634;5.566;2022-12-07T07:24:53;18.00;65.20
58153;DHT22;43967;51.634;5.566;2022-12-07T07:29:56;18.10;65.20
58153;DHT22;43967;51.634;5.566;2022-12-07T07:34:57;18.20;65.20
58153;DHT22;43967;51.634;5.566;2022-12-07T07:39:58;18.20;65.20
58153;DHT22;43967;51.634;5.566;2022-12-07T07:44:59;18.40;65.10
58153;DHT22;43967;51.634;5.566;2022-12-07T07:50:00;18.40;65.10
58153;DHT22;43967;51.634;5.566;2022-12-07T07:55:01;18.40;65.10
58153;DHT22;43967;51.634;5.566;2022-12-07T08:00:05;18.50;65.20
58153;DHT22;43967;51.634;5.566;2022-12-07T08:05:06;18.50;65.20
58153;DHT22;43967;51.634;5.566;2022-12-07T08:10:10;18.70;65.40
58153;DHT22;43967;51.634;5.566;2022-12-07T08:15:12;19.00;65.10
58153;DHT22;43967;51.634;5.566;2022-12-07T08:20:13;19.10;64.70
58153;DHT22;43967;51.634;5.566;2022-12-07T08:25:14;19.20;64.60
58153;DHT22;43967;51.634;5.566;2022-12-07T08:30:17;19.20;64.60
58153;DHT22;43967;51.634;5.566;2022-12-07T08:35:18;19.20;64.50
58153;DHT22;43967;51.634;5.566;2022-12-07T08:40:19;19.30;64.70
58153;DHT22;43967;51.634;5.566;2022-12-07T08:45:21;19.30;64.70
58153;DHT22;43967;51.634;5.566;2022-12-07T08:50:23;19.10;64.70
58153;DHT22;43967;51.634;5.566;2022-12-07T08:55:24;19.00;64.90
58153;DHT22;43967;51.634;5.566;2022-12-07T09:00:26;19.00;65.00
58153;DHT22;43967;51.634;5.566;2022-12-07T09:05:27;18.90;65.00
58153;DHT22;43967;51.634;5.566;2022-12-07T09:10:29;18.90;65.00
58153;DHT22;43967;51.634;5.566;2022-12-07T09:15:30;18.90;65.30
58153;DHT22;43967;51.634;5.566;2022-12-07T09:20:31;19.00;65.20
58153;DHT22;43967;51.634;5.566;2022-12-07T13:56:54;17.40;65.10
58153;DHT22;43967;51.634;5.566;2022-12-07T14:08:24;18.10;60.70
58153;DHT22;43967;51.634;5.566;2022-12-07T14:19:56;18.60;60.40
58153;DHT22;43967;51.634;5.566;2022-12-07T14:25:20;18.90;60.30
58153;DHT22;43967;51.634;5.566;2022-12-07T14:30:28;19.10;60.00
58153;DHT22;43967;51.634;5.566;2022-12-07T14:35:30;18.90;56.90
58153;DHT22;43967;51.634;5.566;2022-12-07T14:40:32;19.00;58.80
58153;DHT22;43967;51.634;5.566;2022-12-07T14:45:33;19.10;59.10
58153;DHT22;43967;51.634;5.566;2022-12-07T14:50:38;19.20;59.10
58153;DHT22;43967;51.634;5.566;2022-12-07T14:55:39;19.20;59.20
58153;DHT22;43967;51.634;5.566;2022-12-07T15:00:40;19.30;59.30
58153;DHT22;43967;51.634;5.566;2022-12-07T15:06:03;19.30;59.20
58153;DHT22;43967;51.634;5.566;2022-12-07T15:11:04;19.40;58.80
58153;DHT22;43967;51.634;5.566;2022-12-07T15:16:09;19.40;59.00
58153;DHT22;43967;51.634;5.566;2022-12-07T15:21:15;19.40;59.20
58153;DHT22;43967;51.634;5.566;2022-12-07T15:26:16;19.40;59.20
58153;DHT22;43967;51.634;5.566;2022-12-07T15:31:17;19.30;59.20
58153;DHT22;43967;51.634;5.566;2022-12-07T15:36:21;19.40;59.20
58153;DHT22;43967;51.634;5.566;2022-12-07T15:41:23;18.90;54.80
58153;DHT22;43967;51.634;5.566;2022-12-07T15:46:40;19.10;58.30
58153;DHT22;43967;51.634;5.566;2022-12-07T15:51:42;19.10;58.40
58153;DHT22;43967;51.634;5.566;2022-12-07T15:56:43;19.20;58.40
58153;DHT22;43967;51.634;5.566;2022-12-07T16:01:45;19.10;58.20
58153;DHT22;43967;51.634;5.566;2022-12-07T16:06:46;19.10;58.90
58153;DHT22;43967;51.634;5.566;2022-12-07T16:11:47;19.10;58.80
58153;DHT22;43967;51.634;5.566;2022-12-07T16:16:48;19.10;58.70
58153;DHT22;43967;51.634;5.566;2022-12-07T16:21:50;19.20;59.20
58153;DHT22;43967;51.634;5.566;2022-12-07T16:26:51;19.20;59.40
58153;DHT22;43967;51.634;5.566;2022-12-07T16:31:52;19.30;59.40
58153;DHT22;43967;51.634;5.566;2022-12-07T16:36:53;19.30;59.40
58153;DHT22;43967;51.634;5.566;2022-12-07T16:41:54;19.20;60.80
58153;DHT22;43967;51.634;5.566;2022-12-07T16:46:55;19.30;61.80
58153;DHT22;43967;51.634;5.566;2022-12-07T16:51:56;19.20;61.20
58153;DHT22;43967;51.634;5.566;2022-12-07T16:56:58;19.30;61.90
58153;DHT22;43967;51.634;5.566;2022-12-07T17:01:59;19.40;62.40
58153;DHT22;43967;51.634;5.566;2022-12-07T17:07:00;19.40;62.30
58153;DHT22;43967;51.634;5.566;2022-12-07T17:12:01;19.30;62.10
58153;DHT22;43967;51.634;5.566;2022-12-07T17:17:02;19.40;62.10
58153;DHT22;43967;51.634;5.566;2022-12-07T17:22:03;19.40;62.00
58153;DHT22;43967;51.634;5.566;2022-12-07T17:27:05;19.40;62.00
58153;DHT22;43967;51.634;5.566;2022-12-07T17:32:06;19.50;61.80
58153;DHT22;43967;51.634;5.566;2022-12-07T17:37:07;19.50;61.80
58153;DHT22;43967;51.634;5.566;2022-12-07T17:42:08;19.50;61.80
58153;DHT22;43967;51.634;5.566;2022-12-07T17:47:10;19.50;61.50
58153;DHT22;43967;51.634;5.566;2022-12-07T17:52:11;19.40;61.70
58153;DHT22;43967;51.634;5.566;2022-12-07T17:57:12;19.50;61.60
58153;DHT22;43967;51.634;5.566;2022-12-07T18:02:14;19.50;61.70
58153;DHT22;43967;51.634;5.566;2022-12-07T18:07:15;19.50;61.70
58153;DHT22;43967;51.634;5.566;2022-12-07T18:12:16;19.40;61.60
58153;DHT22;43967;51.634;5.566;2022-12-07T18:17:17;19.40;61.70
58153;DHT22;43967;51.634;5.566;2022-12-07T18:22:18;19.40;61.00
58153;DHT22;43967;51.634;5.566;2022-12-07T18:27:19;19.30;60.80
58153;DHT22;43967;51.634;5.566;2022-12-07T18:32:20;19.20;61.20
58153;DHT22;43967;51.634;5.566;2022-12-07T18:37:22;19.10;61.50
58153;DHT22;43967;51.634;5.566;2022-12-07T18:42:23;19.10;61.70
58153;DHT22;43967;51.634;5.566;2022-12-07T18:47:27;19.00;61.20
58153;DHT22;43967;51.634;5.566;2022-12-07T18:59:02;19.10;60.50
58153;DHT22;43967;51.634;5.566;2022-12-07T19:04:03;19.10;60.90
58153;DHT22;43967;51.634;5.566;2022-12-07T19:28:30;19.30;60.40
58153;DHT22;43967;51.634;5.566;2022-12-07T19:33:42;19.30;60.30
58153;DHT22;43967;51.634;5.566;2022-12-07T19:50:16;19.10;60.10
58153;DHT22;43967;51.634;5.566;2022-12-07T19:55:17;19.10;60.00
58153;DHT22;43967;51.634;5.566;2022-12-07T20:00:19;19.10;60.20
58153;DHT22;43967;51.634;5.566;2022-12-07T20:05:20;19.30;60.40
58153;DHT22;43967;51.634;5.566;2022-12-07T20:10:21;19.40;60.00
58153;DHT22;43967;51.634;5.566;2022-12-07T20:15:22;19.40;59.90
58153;DHT22;43967;51.634;5.566;2022-12-07T20:20:23;19.40;60.10
58153;DHT22;43967;51.634;5.566;2022-12-07T20:25:25;19.50;60.40
58153;DHT22;43967;51.634;5.566;2022-12-07T20:30:26;19.50;60.50
58153;DHT22;43967;51.634;5.566;2022-12-07T20:35:28;19.50;60.30
58153;DHT22;43967;51.634;5.566;2022-12-07T20:40:29;19.50;60.20
58153;DHT22;43967;51.634;5.566;2022-12-07T20:45:30;19.50;60.10
58153;DHT22;43967;51.634;5.566;2022-12-07T20:50:31;19.60;60.20
58153;DHT22;43967;51.634;5.566;2022-12-07T20:55:33;19.60;60.20
58153;DHT22;43967;51.634;5.566;2022-12-07T21:00:35;19.60;60.10
58153;DHT22;43967;51.634;5.566;2022-12-07T21:05:36;19.60;60.00
58153;DHT22;43967;51.634;5.566;2022-12-07T21:10:37;19.60;59.90
58153;DHT22;43967;51.634;5.566;2022-12-07T21:15:39;19.60;59.70
58153;DHT22;43967;51.634;5.566;2022-12-07T21:20:40;19.60;59.70
58153;DHT22;43967;51.634;5.566;2022-12-07T21:25:41;19.60;59.60
58153;DHT22;43967;51.634;5.566;2022-12-07T21:30:42;19.60;59.40
58153;DHT22;43967;51.634;5.566;2022-12-07T21:35:43;19.60;59.50
58153;DHT22;43967;51.634;5.566;2022-12-07T21:40:44;19.60;59.40
58153;DHT22;43967;51.634;5.566;2022-12-07T21:45:50;19.60;59.00
58153;DHT22;43967;51.634;5.566;2022-12-07T21:50:51;19.50;59.00
58153;DHT22;43967;51.634;5.566;2022-12-07T21:55:52;19.50;59.10
58153;DHT22;43967;51.634;5.566;2022-12-07T22:00:53;19.60;59.10
58153;DHT22;43967;51.634;5.566;2022-12-07T22:06:00;19.60;59.00
